Time;durP1;ratioP1;P1;durP2;ratioP2;P2;SDS_P1;SDS_P2;PMS_P1;PMS_P2;Temp;Humidity;BMP_temperature;BMP_pressure;BME280_temperature;BME280_humidity;BME280_pressure;Samples;Min_cycle;Max_cycle;Signal;HPM_P1;HPM_P2
2022/10/11 00:02:15;;;;;;;15.98;4.10;;;;;;;;;;5063056;28;20414;-82
2022/10/11 00:04:42;;;;;;;12.15;3.90;;;;;;;;;;5080799;28;20429;-82
2022/10/11 00:07:09;;;;;;;15.10;3.87;;;;;;;;;;5083692;28;20439;-82
2022/10/11 00:09:35;;;;;;;15.37;4.00;;;;;;;;;;5082057;28;20431;-82
2022/10/11 00:12:04;;;;;;;13.88;3.97;;;;;;;;;;5081906;28;21147;-81
2022/10/11 00:14:32;;;;;;;15.88;3.95;;;;;;;;;;5080495;28;20428;-82
2022/10/11 00:16:59;;;;;;;17.65;4.82;;;;;;;;;;5081527;28;20439;-82
2022/10/11 00:19:25;;;;;;;15.70;4.00;;;;;;;;;;5083401;28;20438;-82
2022/10/11 00:21:52;;;;;;;12.95;3.50;;;;;;;;;;5081709;28;20428;-82
2022/10/11 00:24:18;;;;;;;16.38;3.95;;;;;;;;;;5081105;28;20934;-82
2022/10/11 00:26:44;;;;;;;13.40;4.20;;;;;;;;;;5096755;28;20430;-82
2022/10/11 00:29:13;;;;;;;11.18;3.60;;;;;;;;;;5080480;28;20928;-82
2022/10/11 00:31:39;;;;;;;20.58;4.20;;;;;;;;;;5079568;28;20807;-82
2022/10/11 00:34:06;;;;;;;13.95;3.92;;;;;;;;;;5080775;28;20418;-84
2022/10/11 00:36:32;;;;;;;15.00;3.80;;;;;;;;;;5079504;28;20462;-82
2022/10/11 00:39:00;;;;;;;16.00;4.07;;;;;;;;;;5079112;28;20418;-83
2022/10/11 00:41:27;;;;;;;13.55;4.30;;;;;;;;;;5078674;28;20424;-82
2022/10/11 00:44:07;;;;;;;13.82;4.32;;;;;;;;;;5082709;28;20424;-82
2022/10/11 00:46:35;;;;;;;14.63;4.00;;;;;;;;;;5098844;28;20427;-82
2022/10/11 00:49:04;;;;;;;13.65;4.00;;;;;;;;;;5085448;28;20410;-82
2022/10/11 00:51:37;;;;;;;12.05;3.60;;;;;;;;;;5066593;28;20428;-82
2022/10/11 00:54:04;;;;;;;16.63;4.40;;;;;;;;;;5084654;28;20414;-82
2022/10/11 00:56:32;;;;;;;13.05;3.72;;;;;;;;;;5066835;28;20431;-82
2022/10/11 00:59:00;;;;;;;14.70;4.40;;;;;;;;;;5085448;28;20419;-82
2022/10/11 01:01:27;;;;;;;15.75;3.70;;;;;;;;;;5084537;28;20409;-82
2022/10/11 01:03:56;;;;;;;13.13;3.90;;;;;;;;;;5086403;28;20410;-83
2022/10/11 01:06:23;;;;;;;13.38;3.55;;;;;;;;;;5085179;28;20431;-82
2022/10/11 01:08:50;;;;;;;11.15;3.78;;;;;;;;;;5085809;28;20410;-82
2022/10/11 01:11:19;;;;;;;22.03;5.17;;;;;;;;;;5085174;28;20429;-82
2022/10/11 01:13:49;;;;;;;17.90;4.37;;;;;;;;;;5084414;28;20417;-82
2022/10/11 01:16:18;;;;;;;14.80;4.10;;;;;;;;;;5084973;28;20414;-82
2022/10/11 01:18:48;;;;;;;17.92;4.38;;;;;;;;;;5084602;28;20422;-82
2022/10/11 01:21:22;;;;;;;11.80;4.25;;;;;;;;;;5083470;28;20462;-82
2022/10/11 01:24:15;;;;;;;15.68;4.13;;;;;;;;;;5083000;28;20929;-82
2022/10/11 01:26:53;;;;;;;10.70;3.45;;;;;;;;;;5053275;28;20990;-83
2022/10/11 01:29:25;;;;;;;15.32;4.65;;;;;;;;;;5083285;28;20423;-82
2022/10/11 01:31:55;;;;;;;16.35;5.07;;;;;;;;;;5084552;28;20412;-82
2022/10/11 01:34:26;;;;;;;14.90;4.28;;;;;;;;;;5083813;28;20423;-82
2022/10/11 01:36:57;;;;;;;17.93;4.70;;;;;;;;;;5066707;28;20426;-82
2022/10/11 01:39:25;;;;;;;15.68;3.78;;;;;;;;;;5082068;28;20428;-81
2022/10/11 01:41:54;;;;;;;18.25;4.05;;;;;;;;;;5085444;28;20437;-82
2022/10/11 01:44:23;;;;;;;12.45;3.50;;;;;;;;;;5083083;28;20516;-82
2022/10/11 01:46:50;;;;;;;13.65;4.05;;;;;;;;;;5082772;28;20433;-82
2022/10/11 01:49:18;;;;;;;15.57;4.15;;;;;;;;;;5082282;28;20424;-82
2022/10/11 01:51:46;;;;;;;18.35;4.38;;;;;;;;;;5083219;28;20425;-82
2022/10/11 01:54:26;;;;;;;16.58;5.00;;;;;;;;;;5100404;28;20433;-83
2022/10/11 01:57:08;;;;;;;14.85;4.45;;;;;;;;;;5099739;27;20960;-82
2022/10/11 01:59:40;;;;;;;11.00;4.55;;;;;;;;;;5083900;28;20418;-82
2022/10/11 02:02:14;;;;;;;15.07;4.07;;;;;;;;;;5085921;28;20805;-82
2022/10/11 02:04:44;;;;;;;11.20;4.50;;;;;;;;;;5080354;28;20430;-82
2022/10/11 02:07:12;;;;;;;12.32;3.72;;;;;;;;;;5083502;28;20433;-83
2022/10/11 02:09:43;;;;;;;15.40;4.03;;;;;;;;;;5084579;28;20434;-82
2022/10/11 02:12:12;;;;;;;13.48;4.90;;;;;;;;;;5081686;28;20443;-82
2022/10/11 02:14:40;;;;;;;16.23;4.40;;;;;;;;;;5065858;28;20550;-82
2022/10/11 02:17:08;;;;;;;14.05;5.20;;;;;;;;;;5084960;28;20420;-81
2022/10/11 02:19:37;;;;;;;17.48;4.75;;;;;;;;;;5085380;28;20423;-82
2022/10/11 02:22:08;;;;;;;16.70;4.40;;;;;;;;;;5085754;28;20416;-82
2022/10/11 02:24:35;;;;;;;15.25;4.20;;;;;;;;;;5084208;28;20415;-82
2022/10/11 02:27:04;;;;;;;13.38;4.70;;;;;;;;;;5068945;28;20426;-82
2022/10/11 02:29:31;;;;;;;12.80;4.10;;;;;;;;;;5084010;28;20414;-82
2022/10/11 02:31:59;;;;;;;18.27;4.43;;;;;;;;;;5084157;28;20425;-82
2022/10/11 02:34:27;;;;;;;15.50;4.32;;;;;;;;;;5082135;28;20492;-83
2022/10/11 02:36:58;;;;;;;12.50;3.88;;;;;;;;;;5083491;28;20430;-82
2022/10/11 02:39:28;;;;;;;15.27;3.92;;;;;;;;;;5083348;28;20444;-82
2022/10/11 02:41:57;;;;;;;12.00;3.80;;;;;;;;;;5083368;28;20423;-82
2022/10/11 02:44:28;;;;;;;14.73;4.07;;;;;;;;;;5083784;28;20491;-82
2022/10/11 02:46:55;;;;;;;13.05;4.10;;;;;;;;;;5079190;28;20428;-82
2022/10/11 02:49:22;;;;;;;14.07;4.78;;;;;;;;;;5082158;28;20410;-82
2022/10/11 02:51:48;;;;;;;11.93;4.45;;;;;;;;;;5081786;28;20435;-82
2022/10/11 02:54:14;;;;;;;14.05;4.45;;;;;;;;;;5077501;28;20430;-82
2022/10/11 02:56:42;;;;;;;13.63;4.13;;;;;;;;;;5084700;28;20429;-82
2022/10/11 02:59:09;;;;;;;15.93;4.80;;;;;;;;;;5082460;28;20424;-82
2022/10/11 03:01:35;;;;;;;13.40;4.28;;;;;;;;;;5085549;28;20794;-82
2022/10/11 03:04:01;;;;;;;12.60;3.97;;;;;;;;;;5085839;28;20434;-82
2022/10/11 03:06:28;;;;;;;12.20;4.07;;;;;;;;;;5082472;28;20507;-82
2022/10/11 03:08:54;;;;;;;15.60;4.82;;;;;;;;;;5080803;28;20496;-82
2022/10/11 03:11:22;;;;;;;16.85;4.47;;;;;;;;;;5084556;28;20426;-82
2022/10/11 03:13:50;;;;;;;14.85;4.57;;;;;;;;;;5082292;28;20943;-82
2022/10/11 03:16:16;;;;;;;11.32;3.60;;;;;;;;;;5079098;28;20450;-82
2022/10/11 03:18:43;;;;;;;15.57;4.10;;;;;;;;;;5081510;28;20419;-83
2022/10/11 03:21:09;;;;;;;13.60;3.75;;;;;;;;;;5081491;28;20429;-82
2022/10/11 03:23:36;;;;;;;13.80;3.85;;;;;;;;;;5082383;28;20416;-82
2022/10/11 03:26:02;;;;;;;12.68;4.60;;;;;;;;;;5087440;28;20430;-82
2022/10/11 03:28:29;;;;;;;13.68;4.75;;;;;;;;;;5082547;28;20422;-82
2022/10/11 03:30:57;;;;;;;14.63;3.90;;;;;;;;;;5083219;28;20429;-82
2022/10/11 03:33:23;;;;;;;14.30;4.20;;;;;;;;;;5083107;28;20434;-82
2022/10/11 03:35:50;;;;;;;12.00;4.03;;;;;;;;;;5085022;28;20430;-82
2022/10/11 03:38:18;;;;;;;14.85;3.60;;;;;;;;;;5080954;28;20913;-82
2022/10/11 03:40:44;;;;;;;16.25;4.40;;;;;;;;;;5065948;28;20430;-81
2022/10/11 03:43:11;;;;;;;14.80;4.57;;;;;;;;;;5084157;28;20433;-82
2022/10/11 03:45:37;;;;;;;13.50;4.47;;;;;;;;;;5083757;28;20428;-82
2022/10/11 03:48:07;;;;;;;15.20;4.20;;;;;;;;;;5084202;28;20416;-82
2022/10/11 03:50:33;;;;;;;13.05;4.10;;;;;;;;;;5081677;28;20962;-82
2022/10/11 03:52:59;;;;;;;13.55;3.90;;;;;;;;;;5082642;28;20805;-82
2022/10/11 03:55:26;;;;;;;11.70;4.13;;;;;;;;;;5083619;28;20423;-82
2022/10/11 03:57:52;;;;;;;14.60;4.05;;;;;;;;;;5083330;28;20427;-82
2022/10/11 04:00:19;;;;;;;17.60;4.25;;;;;;;;;;5079170;28;20427;-82
2022/10/11 04:02:45;;;;;;;11.40;3.60;;;;;;;;;;5065971;28;20911;-82
2022/10/11 04:05:13;;;;;;;14.70;4.10;;;;;;;;;;5083040;28;20803;-82
2022/10/11 04:07:40;;;;;;;10.15;3.95;;;;;;;;;;5082649;28;20424;-82
2022/10/11 04:10:07;;;;;;;19.20;4.03;;;;;;;;;;5061226;28;20417;-82
2022/10/11 04:12:33;;;;;;;12.98;3.92;;;;;;;;;;5061943;28;20483;-82
2022/10/11 04:14:59;;;;;;;14.60;4.20;;;;;;;;;;5081951;28;21239;-82
2022/10/11 04:17:26;;;;;;;13.15;4.30;;;;;;;;;;5084746;28;20427;-81
2022/10/11 04:19:52;;;;;;;16.52;4.60;;;;;;;;;;5086117;28;20601;-82
2022/10/11 04:22:20;;;;;;;15.23;4.20;;;;;;;;;;5086063;28;20423;-82
2022/10/11 04:24:46;;;;;;;19.25;4.35;;;;;;;;;;5082508;28;20424;-82
2022/10/11 04:27:13;;;;;;;18.38;4.15;;;;;;;;;;5086677;28;20428;-82
2022/10/11 04:29:39;;;;;;;16.37;4.13;;;;;;;;;;5086931;27;20417;-82
2022/10/11 04:32:06;;;;;;;14.60;4.95;;;;;;;;;;5081040;28;20431;-82
2022/10/11 04:34:32;;;;;;;13.02;4.88;;;;;;;;;;5086484;28;20430;-82
2022/10/11 04:36:59;;;;;;;20.47;4.67;;;;;;;;;;5069563;28;20404;-82
2022/10/11 04:39:26;;;;;;;13.00;4.10;;;;;;;;;;5085838;27;20488;-82
2022/10/11 04:41:53;;;;;;;14.02;4.43;;;;;;;;;;5086724;28;20435;-82
2022/10/11 04:44:19;;;;;;;10.10;4.25;;;;;;;;;;5085949;28;20461;-82
2022/10/11 04:46:46;;;;;;;12.23;4.60;;;;;;;;;;5084476;28;20426;-82
2022/10/11 04:49:13;;;;;;;15.48;4.57;;;;;;;;;;5086561;28;20425;-82
2022/10/11 04:51:39;;;;;;;12.07;4.00;;;;;;;;;;5066740;28;20889;-82
2022/10/11 04:54:06;;;;;;;16.77;4.78;;;;;;;;;;5085926;27;20424;-82
2022/10/11 04:56:34;;;;;;;15.50;4.47;;;;;;;;;;5087951;28;20417;-82
2022/10/11 04:59:01;;;;;;;13.53;4.70;;;;;;;;;;5086463;28;20958;-82
2022/10/11 05:01:27;;;;;;;19.45;5.22;;;;;;;;;;5069669;28;20438;-82
2022/10/11 05:03:53;;;;;;;14.35;4.28;;;;;;;;;;5067732;28;20424;-82
2022/10/11 05:06:20;;;;;;;15.47;4.40;;;;;;;;;;5085047;28;20429;-82
2022/10/11 05:08:46;;;;;;;16.35;4.97;;;;;;;;;;5085959;28;20947;-82
2022/10/11 05:11:14;;;;;;;13.07;4.15;;;;;;;;;;5084022;28;20439;-82
2022/10/11 05:13:42;;;;;;;14.32;4.10;;;;;;;;;;5083145;28;20424;-82
2022/10/11 05:16:09;;;;;;;19.65;4.65;;;;;;;;;;5068152;28;20428;-82
2022/10/11 05:18:35;;;;;;;17.92;4.40;;;;;;;;;;5083035;27;20425;-82
2022/10/11 05:21:02;;;;;;;10.13;4.57;;;;;;;;;;5085327;28;20442;-82
2022/10/11 05:23:30;;;;;;;12.45;3.90;;;;;;;;;;5082881;28;20432;-82
2022/10/11 05:25:56;;;;;;;14.05;4.80;;;;;;;;;;5085012;28;20431;-82
2022/10/11 05:28:22;;;;;;;8.70;4.13;;;;;;;;;;5085161;28;20793;-82
2022/10/11 05:30:51;;;;;;;14.38;4.40;;;;;;;;;;5083934;28;20920;-82
2022/10/11 05:33:17;;;;;;;13.10;4.30;;;;;;;;;;5085678;28;20410;-82
2022/10/11 05:35:44;;;;;;;17.85;4.30;;;;;;;;;;5086869;28;20414;-82
2022/10/11 05:38:10;;;;;;;10.82;4.10;;;;;;;;;;5082784;27;20417;-83
2022/10/11 05:40:37;;;;;;;13.57;4.40;;;;;;;;;;5064262;28;20943;-83
2022/10/11 05:43:03;;;;;;;16.90;4.40;;;;;;;;;;5082197;28;20436;-82
2022/10/11 05:45:31;;;;;;;11.30;4.15;;;;;;;;;;5068077;28;20954;-82
2022/10/11 05:47:59;;;;;;;19.13;4.20;;;;;;;;;;5081930;28;20431;-82
2022/10/11 05:50:26;;;;;;;16.83;4.77;;;;;;;;;;5082499;28;20510;-82
2022/10/11 05:52:52;;;;;;;17.08;4.57;;;;;;;;;;5066181;28;20422;-82
2022/10/11 05:55:19;;;;;;;11.65;3.95;;;;;;;;;;5068420;28;20406;-82
2022/10/11 05:57:45;;;;;;;14.13;4.30;;;;;;;;;;5062941;28;20417;-83
2022/10/11 06:00:12;;;;;;;15.95;4.35;;;;;;;;;;5082381;28;20426;-83
2022/10/11 06:02:38;;;;;;;15.45;4.72;;;;;;;;;;5085338;28;20439;-82
2022/10/11 06:05:07;;;;;;;15.38;3.90;;;;;;;;;;5081195;27;20430;-82
2022/10/11 06:07:35;;;;;;;15.98;4.32;;;;;;;;;;5085460;28;20440;-82
2022/10/11 06:10:01;;;;;;;15.52;4.97;;;;;;;;;;5086342;28;20420;-82
2022/10/11 06:12:28;;;;;;;15.18;5.07;;;;;;;;;;5085984;28;20422;-82
2022/10/11 06:14:54;;;;;;;12.10;4.38;;;;;;;;;;5086500;27;20411;-82
2022/10/11 06:17:21;;;;;;;13.63;4.30;;;;;;;;;;5085925;28;20443;-82
2022/10/11 06:19:49;;;;;;;9.33;4.27;;;;;;;;;;5082048;28;20502;-82
2022/10/11 06:22:17;;;;;;;12.00;4.00;;;;;;;;;;5083558;28;20421;-82
2022/10/11 06:24:43;;;;;;;12.48;4.80;;;;;;;;;;5083441;28;20413;-83
2022/10/11 06:27:10;;;;;;;15.17;4.43;;;;;;;;;;5084554;28;20483;-82
2022/10/11 06:29:36;;;;;;;11.13;4.55;;;;;;;;;;5083641;27;20419;-82
2022/10/11 06:32:02;;;;;;;10.05;3.53;;;;;;;;;;5083890;28;20419;-82
2022/10/11 06:34:29;;;;;;;12.20;4.47;;;;;;;;;;5083403;28;20493;-83
2022/10/11 06:36:55;;;;;;;11.27;4.00;;;;;;;;;;5081191;28;20423;-82
2022/10/11 06:39:23;;;;;;;8.40;4.30;;;;;;;;;;5079862;27;20813;-82
2022/10/11 06:41:49;;;;;;;11.80;3.83;;;;;;;;;;5083845;28;20426;-82
2022/10/11 06:44:16;;;;;;;16.50;4.30;;;;;;;;;;5086051;27;20415;-82
2022/10/11 06:46:43;;;;;;;12.00;4.40;;;;;;;;;;5083519;28;20545;-82
2022/10/11 06:49:09;;;;;;;13.18;4.15;;;;;;;;;;5067937;28;20416;-82
2022/10/11 06:51:36;;;;;;;14.88;4.78;;;;;;;;;;5083837;28;20405;-82
2022/10/11 06:54:02;;;;;;;15.63;4.63;;;;;;;;;;5065587;28;21214;-82
2022/10/11 06:56:30;;;;;;;12.65;4.68;;;;;;;;;;5051178;28;20414;-82
2022/10/11 06:58:57;;;;;;;14.85;4.10;;;;;;;;;;5082251;28;20773;-82
2022/10/11 07:01:24;;;;;;;9.45;3.97;;;;;;;;;;5082869;28;20409;-82
2022/10/11 07:03:51;;;;;;;16.02;5.00;;;;;;;;;;5081564;28;20424;-82
2022/10/11 07:06:19;;;;;;;15.43;4.40;;;;;;;;;;5083581;28;20410;-83
2022/10/11 07:08:45;;;;;;;12.10;4.72;;;;;;;;;;5084731;27;20421;-82
2022/10/11 07:11:13;;;;;;;15.75;4.47;;;;;;;;;;5082300;28;20421;-82
2022/10/11 07:13:41;;;;;;;13.03;4.40;;;;;;;;;;5083122;27;20412;-84
2022/10/11 07:16:09;;;;;;;13.52;3.88;;;;;;;;;;5084793;28;20414;-82
2022/10/11 07:18:35;;;;;;;14.05;5.10;;;;;;;;;;5082510;27;20427;-82
2022/10/11 07:21:02;;;;;;;11.93;4.00;;;;;;;;;;5082861;28;20432;-82
2022/10/11 07:23:28;;;;;;;12.52;4.43;;;;;;;;;;5082258;28;20419;-82
2022/10/11 07:25:55;;;;;;;12.10;4.80;;;;;;;;;;5083630;28;20430;-82
2022/10/11 07:28:21;;;;;;;16.85;4.82;;;;;;;;;;5083864;28;20417;-82
2022/10/11 07:30:51;;;;;;;13.05;4.70;;;;;;;;;;5085161;28;20429;-82
2022/10/11 07:33:17;;;;;;;11.03;4.50;;;;;;;;;;5083122;27;20411;-82
2022/10/11 07:35:44;;;;;;;11.32;4.32;;;;;;;;;;5081845;28;20427;-82
2022/10/11 07:38:11;;;;;;;16.27;5.25;;;;;;;;;;5082115;28;20416;-82
2022/10/11 07:40:40;;;;;;;18.27;5.00;;;;;;;;;;5083687;28;20801;-83
2022/10/11 07:43:07;;;;;;;16.10;4.85;;;;;;;;;;5083109;28;20440;-82
2022/10/11 07:45:33;;;;;;;16.55;5.07;;;;;;;;;;5082201;28;20421;-82
2022/10/11 07:48:01;;;;;;;11.93;4.10;;;;;;;;;;5082991;27;20411;-82
2022/10/11 07:50:28;;;;;;;16.73;4.97;;;;;;;;;;5084419;28;20425;-82
2022/10/11 07:52:55;;;;;;;14.33;4.50;;;;;;;;;;5064767;28;20496;-82
2022/10/11 07:55:21;;;;;;;11.70;4.35;;;;;;;;;;5083261;28;20967;-82
2022/10/11 07:57:48;;;;;;;16.65;4.93;;;;;;;;;;5083273;27;20772;-82
2022/10/11 08:00:14;;;;;;;15.25;5.15;;;;;;;;;;5083632;28;20402;-82
2022/10/11 08:02:41;;;;;;;12.85;4.53;;;;;;;;;;5062163;28;20793;-82
2022/10/11 08:05:10;;;;;;;11.25;4.38;;;;;;;;;;5078238;28;20433;-83
2022/10/11 08:07:36;;;;;;;15.32;4.68;;;;;;;;;;5081430;28;20420;-83
2022/10/11 08:10:03;;;;;;;16.50;4.70;;;;;;;;;;5082589;28;20423;-82
2022/10/11 08:12:29;;;;;;;9.43;3.75;;;;;;;;;;5081203;28;20488;-82
2022/10/11 08:14:56;;;;;;;16.45;4.50;;;;;;;;;;5083296;28;20430;-82
2022/10/11 08:17:23;;;;;;;14.25;5.15;;;;;;;;;;5080120;28;20415;-82
2022/10/11 08:19:50;;;;;;;14.55;4.88;;;;;;;;;;5082117;28;20438;-82
2022/10/11 08:22:18;;;;;;;14.80;4.60;;;;;;;;;;5079552;28;21014;-83
2022/10/11 08:24:44;;;;;;;19.85;4.35;;;;;;;;;;5080084;28;20514;-82
2022/10/11 08:27:11;;;;;;;11.05;4.60;;;;;;;;;;5081501;28;20418;-82
2022/10/11 08:29:37;;;;;;;12.43;4.75;;;;;;;;;;5079546;28;20484;-82
2022/10/11 08:32:04;;;;;;;13.02;4.60;;;;;;;;;;5081359;28;20903;-82
2022/10/11 08:34:31;;;;;;;13.25;3.33;;;;;;;;;;5080183;28;20414;-83
2022/10/11 08:36:57;;;;;;;14.17;4.20;;;;;;;;;;5084567;28;20425;-82
2022/10/11 08:39:26;;;;;;;12.73;3.60;;;;;;;;;;5078866;28;20429;-82
2022/10/11 08:41:54;;;;;;;11.90;3.95;;;;;;;;;;5082534;28;20410;-83
2022/10/11 08:44:27;;;;;;;15.82;4.25;;;;;;;;;;5081368;28;20934;-82
2022/10/11 08:46:58;;;;;;;11.97;4.20;;;;;;;;;;5062608;28;20411;-82
2022/10/11 08:49:27;;;;;;;14.15;4.30;;;;;;;;;;5083585;28;20413;-83
2022/10/11 08:51:58;;;;;;;11.67;3.90;;;;;;;;;;5078933;28;20497;-83
2022/10/11 08:54:30;;;;;;;14.95;4.07;;;;;;;;;;5079638;28;20430;-83
2022/10/11 08:56:56;;;;;;;16.10;4.13;;;;;;;;;;5078560;28;20451;-83
2022/10/11 08:59:28;;;;;;;12.80;3.65;;;;;;;;;;5080951;28;20496;-82
2022/10/11 09:01:58;;;;;;;12.70;4.15;;;;;;;;;;5091626;28;20416;-82
2022/10/11 09:04:25;;;;;;;15.13;3.80;;;;;;;;;;5083233;28;20434;-81
2022/10/11 09:06:55;;;;;;;16.17;4.80;;;;;;;;;;5084288;28;20437;-83
2022/10/11 09:09:37;;;;;;;12.13;3.67;;;;;;;;;;5085169;28;20426;-83
2022/10/11 09:12:09;;;;;;;14.88;4.20;;;;;;;;;;5086685;28;20429;-81
2022/10/11 09:14:47;;;;;;;13.02;4.00;;;;;;;;;;5083953;28;20425;-81
2022/10/11 09:17:17;;;;;;;14.73;4.10;;;;;;;;;;5085734;28;20423;-81
2022/10/11 09:19:56;;;;;;;12.52;3.40;;;;;;;;;;5087830;28;20495;-81
2022/10/11 09:22:27;;;;;;;17.40;4.03;;;;;;;;;;5079688;28;20922;-81
2022/10/11 09:24:58;;;;;;;15.00;3.80;;;;;;;;;;5085084;28;20416;-81
2022/10/11 09:27:29;;;;;;;11.10;3.55;;;;;;;;;;5083487;28;20817;-81
2022/10/11 09:29:59;;;;;;;16.40;3.78;;;;;;;;;;5087638;28;20919;-82
2022/10/11 09:32:28;;;;;;;15.90;3.90;;;;;;;;;;5085368;28;20418;-83
2022/10/11 09:34:59;;;;;;;16.67;4.20;;;;;;;;;;5083456;28;20414;-81
2022/10/11 09:37:29;;;;;;;14.03;4.30;;;;;;;;;;5080874;28;20422;-81
2022/10/11 09:39:57;;;;;;;14.27;4.03;;;;;;;;;;5082409;28;20425;-81
2022/10/11 09:42:24;;;;;;;17.08;4.20;;;;;;;;;;5083599;28;20418;-81
2022/10/11 09:44:52;;;;;;;14.50;4.30;;;;;;;;;;5087315;28;20417;-83
2022/10/11 09:47:19;;;;;;;16.50;4.50;;;;;;;;;;5085735;28;20427;-82
2022/10/11 09:49:48;;;;;;;16.67;4.50;;;;;;;;;;5085086;28;20456;-82
2022/10/11 09:52:16;;;;;;;15.33;3.60;;;;;;;;;;5084063;28;20930;-81
2022/10/11 09:54:45;;;;;;;7.97;3.03;;;;;;;;;;5082705;28;20412;-82
2022/10/11 09:57:19;;;;;;;16.98;4.30;;;;;;;;;;5082952;28;20417;-81
2022/10/11 09:59:57;;;;;;;13.30;4.03;;;;;;;;;;5083249;28;20415;-81
2022/10/11 10:02:25;;;;;;;11.98;4.10;;;;;;;;;;5080044;28;20419;-82
2022/10/11 10:04:55;;;;;;;14.43;3.30;;;;;;;;;;5081824;28;20443;-81
2022/10/11 10:07:22;;;;;;;18.75;4.57;;;;;;;;;;5082694;28;20423;-81
2022/10/11 10:09:48;;;;;;;13.93;3.33;;;;;;;;;;5085072;28;20915;-81
2022/10/11 10:12:20;;;;;;;12.27;4.35;;;;;;;;;;5082238;28;20422;-81
2022/10/11 10:14:54;;;;;;;11.70;4.20;;;;;;;;;;5083501;28;20410;-82
2022/10/11 10:17:21;;;;;;;18.33;3.63;;;;;;;;;;5080409;28;20440;-81
2022/10/11 10:19:51;;;;;;;16.20;4.13;;;;;;;;;;5082979;28;20870;-82
2022/10/11 10:22:18;;;;;;;10.82;3.58;;;;;;;;;;5083908;28;20406;-81
2022/10/11 10:24:45;;;;;;;13.13;3.88;;;;;;;;;;5083158;28;20412;-82
2022/10/11 10:27:19;;;;;;;16.50;3.80;;;;;;;;;;5082547;28;20411;-81
2022/10/11 10:30:00;;;;;;;17.90;3.63;;;;;;;;;;5081110;28;20412;-82
2022/10/11 10:32:29;;;;;;;13.10;3.60;;;;;;;;;;5083460;28;20424;-81
2022/10/11 10:35:01;;;;;;;13.20;3.65;;;;;;;;;;5083202;28;20426;-80
2022/10/11 10:37:30;;;;;;;15.40;3.42;;;;;;;;;;5079125;28;20799;-81
2022/10/11 10:40:00;;;;;;;13.07;3.65;;;;;;;;;;5085469;28;20420;-81
2022/10/11 10:42:27;;;;;;;16.02;3.67;;;;;;;;;;5083151;28;20409;-82
2022/10/11 10:44:55;;;;;;;11.30;4.00;;;;;;;;;;5082592;28;20412;-81
2022/10/11 10:47:29;;;;;;;15.75;4.00;;;;;;;;;;5082830;28;20457;-82
2022/10/11 10:50:01;;;;;;;13.82;3.58;;;;;;;;;;5083176;28;21006;-81
2022/10/11 10:52:41;;;;;;;15.77;3.80;;;;;;;;;;5080022;28;20424;-81
2022/10/11 10:55:14;;;;;;;12.82;3.28;;;;;;;;;;5081228;28;20412;-81
2022/10/11 10:57:45;;;;;;;12.68;3.33;;;;;;;;;;5077940;28;20430;-81
2022/10/11 11:00:14;;;;;;;15.07;3.22;;;;;;;;;;5083209;28;20421;-83
2022/10/11 11:02:44;;;;;;;10.00;3.20;;;;;;;;;;5083517;28;20477;-81
2022/10/11 11:05:20;;;;;;;11.30;3.58;;;;;;;;;;5083031;28;20413;-83
2022/10/11 11:07:51;;;;;;;12.50;3.63;;;;;;;;;;5082772;28;20984;-83
2022/10/11 11:10:20;;;;;;;12.00;2.80;;;;;;;;;;5082784;28;20428;-83
2022/10/11 11:12:49;;;;;;;10.48;3.10;;;;;;;;;;5081661;28;20454;-83
2022/10/11 11:15:19;;;;;;;13.30;3.00;;;;;;;;;;5082657;28;20426;-83
2022/10/11 11:18:01;;;;;;;12.05;3.40;;;;;;;;;;5080675;28;20978;-84
2022/10/11 11:20:42;;;;;;;9.93;2.70;;;;;;;;;;5083995;28;20412;-83
2022/10/11 11:23:16;;;;;;;12.48;2.90;;;;;;;;;;5082083;28;20411;-83
2022/10/11 11:25:47;;;;;;;14.77;3.20;;;;;;;;;;5081986;28;20427;-83
2022/10/11 11:28:23;;;;;;;9.20;3.33;;;;;;;;;;5079576;28;20418;-84
2022/10/11 11:30:55;;;;;;;11.23;2.75;;;;;;;;;;5079434;28;20793;-84
2022/10/11 11:33:24;;;;;;;12.68;3.80;;;;;;;;;;5079531;28;20415;-83
2022/10/11 11:35:52;;;;;;;12.48;3.00;;;;;;;;;;5081116;28;20432;-83
2022/10/11 11:38:22;;;;;;;13.30;2.95;;;;;;;;;;5079441;28;20469;-81
2022/10/11 11:40:52;;;;;;;12.30;3.42;;;;;;;;;;5082231;28;20407;-81
2022/10/11 11:43:21;;;;;;;9.93;2.95;;;;;;;;;;5079691;28;20406;-83
2022/10/11 11:45:49;;;;;;;10.05;2.92;;;;;;;;;;5080465;28;20455;-81
2022/10/11 11:48:18;;;;;;;10.52;2.97;;;;;;;;;;5078362;28;20418;-81
2022/10/11 11:50:47;;;;;;;13.13;3.40;;;;;;;;;;5083954;28;20798;-83
2022/10/11 11:53:15;;;;;;;9.38;2.63;;;;;;;;;;5079304;28;20951;-81
2022/10/11 11:55:48;;;;;;;12.23;2.83;;;;;;;;;;5079408;28;20415;-83
2022/10/11 11:58:21;;;;;;;12.80;2.60;;;;;;;;;;5079148;28;20475;-83
2022/10/11 12:00:54;;;;;;;13.00;3.20;;;;;;;;;;5080672;28;20422;-83
2022/10/11 12:03:24;;;;;;;17.08;3.10;;;;;;;;;;5078403;28;20428;-81
2022/10/11 12:06:09;;;;;;;8.90;2.70;;;;;;;;;;5081027;28;20425;-82
2022/10/11 12:08:36;;;;;;;10.82;2.90;;;;;;;;;;5083654;28;20410;-81
2022/10/11 12:11:03;;;;;;;7.93;2.70;;;;;;;;;;5082027;28;20426;-81
2022/10/11 12:13:34;;;;;;;12.63;2.90;;;;;;;;;;5083541;28;21315;-82
2022/10/11 12:16:09;;;;;;;9.80;2.40;;;;;;;;;;5082272;28;20431;-82
2022/10/11 12:18:36;;;;;;;9.95;2.85;;;;;;;;;;5084305;28;20419;-81
2022/10/11 12:21:04;;;;;;;10.00;2.90;;;;;;;;;;5083616;28;20424;-82
2022/10/11 12:23:38;;;;;;;10.90;2.63;;;;;;;;;;5083584;28;20414;-83
2022/10/11 12:26:31;;;;;;;10.93;2.70;;;;;;;;;;5080377;28;20428;-81
2022/10/11 12:29:12;;;;;;;16.15;2.75;;;;;;;;;;5081471;28;20427;-83
2022/10/11 12:31:39;;;;;;;12.50;2.90;;;;;;;;;;5079756;28;20427;-80
2022/10/11 12:34:23;;;;;;;7.68;2.33;;;;;;;;;;5079075;28;20430;-81
2022/10/11 12:36:50;;;;;;;6.95;2.35;;;;;;;;;;5073586;28;20423;-83
2022/10/11 12:39:50;;;;;;;10.13;2.60;;;;;;;;;;5084286;28;20423;-83
2022/10/11 12:42:23;;;;;;;11.27;2.63;;;;;;;;;;5084688;28;20457;-83
2022/10/11 12:45:08;;;;;;;10.60;2.00;;;;;;;;;;5087306;28;20418;-83
2022/10/11 12:47:39;;;;;;;11.45;2.60;;;;;;;;;;5085331;28;20415;-82
2022/10/11 12:50:12;;;;;;;12.30;3.08;;;;;;;;;;5083696;28;20449;-83
2022/10/11 12:52:43;;;;;;;8.25;2.05;;;;;;;;;;5086488;28;20437;-83
2022/10/11 12:55:13;;;;;;;8.57;2.55;;;;;;;;;;5085557;28;20405;-83
2022/10/11 12:58:00;;;;;;;10.98;2.67;;;;;;;;;;5083486;28;20965;-84
2022/10/11 13:00:29;;;;;;;7.60;2.20;;;;;;;;;;5083263;28;20417;-82
2022/10/11 13:02:56;;;;;;;10.32;2.55;;;;;;;;;;5064640;28;20795;-83
2022/10/11 13:05:27;;;;;;;5.70;2.20;;;;;;;;;;5047844;28;20411;-83
2022/10/11 13:07:54;;;;;;;11.85;2.30;;;;;;;;;;5059979;28;20417;-83
2022/10/11 13:10:24;;;;;;;7.18;2.08;;;;;;;;;;5064315;28;20500;-83
2022/10/11 13:12:53;;;;;;;7.93;2.40;;;;;;;;;;5061892;28;20445;-83
2022/10/11 13:15:20;;;;;;;5.97;1.80;;;;;;;;;;5067088;28;20420;-83
2022/10/11 13:17:51;;;;;;;10.40;2.47;;;;;;;;;;5062037;28;20411;-84
2022/10/11 13:20:20;;;;;;;13.43;2.38;;;;;;;;;;5064314;28;20447;-83
2022/10/11 13:22:47;;;;;;;10.55;2.42;;;;;;;;;;5063639;28;20438;-83
2022/10/11 13:25:15;;;;;;;8.40;3.08;;;;;;;;;;5065959;28;20824;-83
2022/10/11 13:27:45;;;;;;;9.95;2.70;;;;;;;;;;5060705;28;20458;-83
2022/10/11 13:30:19;;;;;;;9.90;2.70;;;;;;;;;;5065602;28;20434;-82
2022/10/11 13:32:45;;;;;;;9.15;2.40;;;;;;;;;;5063146;28;20437;-82
2022/10/11 13:35:15;;;;;;;7.83;2.20;;;;;;;;;;5063742;28;20918;-81
2022/10/11 13:37:44;;;;;;;9.45;2.10;;;;;;;;;;5044663;28;20423;-81
2022/10/11 13:40:13;;;;;;;9.90;2.40;;;;;;;;;;5047036;28;20421;-84
2022/10/11 13:42:39;;;;;;;8.18;2.47;;;;;;;;;;5061369;28;20423;-84
2022/10/11 13:45:09;;;;;;;8.52;2.33;;;;;;;;;;5067478;28;20517;-80
2022/10/11 13:47:36;;;;;;;11.23;2.30;;;;;;;;;;5084992;28;20412;-81
2022/10/11 13:50:11;;;;;;;9.93;2.97;;;;;;;;;;5082712;28;20430;-80
2022/10/11 13:52:55;;;;;;;10.35;2.42;;;;;;;;;;5081573;28;20494;-81
2022/10/11 13:55:29;;;;;;;6.88;2.13;;;;;;;;;;5082564;28;20956;-82
2022/10/11 13:57:56;;;;;;;8.27;2.78;;;;;;;;;;5083016;28;20457;-82
2022/10/11 14:00:24;;;;;;;10.63;2.30;;;;;;;;;;5083629;28;20431;-82
2022/10/11 14:02:54;;;;;;;8.43;2.67;;;;;;;;;;5084520;28;20418;-82
2022/10/11 14:05:23;;;;;;;8.35;2.40;;;;;;;;;;5085237;28;20455;-82
2022/10/11 14:07:49;;;;;;;9.10;2.40;;;;;;;;;;5082499;28;20444;-82
2022/10/11 14:10:18;;;;;;;10.48;3.03;;;;;;;;;;5085385;28;20408;-82
2022/10/11 14:12:44;;;;;;;9.67;2.30;;;;;;;;;;5080709;28;20436;-82
2022/10/11 14:15:23;;;;;;;11.40;2.38;;;;;;;;;;5082031;28;20411;-82
2022/10/11 14:17:50;;;;;;;9.55;2.10;;;;;;;;;;5082298;28;20599;-82
2022/10/11 14:20:21;;;;;;;10.67;2.50;;;;;;;;;;5066706;28;20438;-83
2022/10/11 14:22:49;;;;;;;13.27;3.03;;;;;;;;;;5078935;28;20785;-81
2022/10/11 14:25:16;;;;;;;9.95;2.63;;;;;;;;;;5084460;28;20443;-82
2022/10/11 14:27:42;;;;;;;9.23;2.80;;;;;;;;;;5084150;28;20430;-82
2022/10/11 14:30:14;;;;;;;9.50;2.90;;;;;;;;;;5068242;28;20414;-82
2022/10/11 14:32:42;;;;;;;11.98;2.30;;;;;;;;;;5085101;28;20415;-83
2022/10/11 14:35:14;;;;;;;7.95;2.50;;;;;;;;;;5084931;28;20415;-81
2022/10/11 14:37:42;;;;;;;8.65;2.88;;;;;;;;;;5083507;28;20418;-81
2022/10/11 14:40:10;;;;;;;11.80;2.65;;;;;;;;;;5084534;28;20420;-82
2022/10/11 14:42:36;;;;;;;7.05;2.10;;;;;;;;;;5081853;28;20430;-81